Crookhaven, Ireland
Current Conditions -  °F | °C
As of 11:00 AM on Monday 26 Jan 2015 (Local Time) from EIKY Reporting Station
Broken Clouds Broken Clouds  
Wind Chill: 41°   Ceiling: 3900
Heat Index: 45°   Visibility: 6mi
Dew Point: 37°   Wind: 7mph
Humidity: 76%   Direction: 290°WNW
Pressure: 30.42"   Gusts: NA
Location:  51.47°N, 9.73°W
Report Text: EIKY 261000Z 29006KT 260V330 9999 BKN039 07/03 Q1030
Loading
Personal Weather Stations






























Interactive Weather Map New forecast layout! Learn more

10-Day Weather Forecast

Advertisements
Track Severe Weather on mobile